sensor_id;sensor_type;location;lat;lon;timestamp;temperature;humidity
77969;DHT22;67161;0.000;0.000;2023-03-05T00:01:24;14.30;47.30
77969;DHT22;67161;0.000;0.000;2023-03-05T00:03:51;14.30;47.40
77969;DHT22;67161;0.000;0.000;2023-03-05T00:06:19;14.30;47.50
77969;DHT22;67161;0.000;0.000;2023-03-05T00:08:44;14.30;47.50
77969;DHT22;67161;0.000;0.000;2023-03-05T00:11:11;14.30;47.40
77969;DHT22;67161;0.000;0.000;2023-03-05T00:13:37;14.20;47.40
77969;DHT22;67161;0.000;0.000;2023-03-05T00:16:08;14.20;47.40
77969;DHT22;67161;0.000;0.000;2023-03-05T00:18:34;14.20;47.40
77969;DHT22;67161;0.000;0.000;2023-03-05T00:21:00;14.20;47.40
77969;DHT22;67161;0.000;0.000;2023-03-05T00:23:26;14.20;47.40
77969;DHT22;67161;0.000;0.000;2023-03-05T00:25:52;14.20;47.50
77969;DHT22;67161;0.000;0.000;2023-03-05T00:28:18;14.20;47.40
77969;DHT22;67161;0.000;0.000;2023-03-05T00:30:43;14.20;47.40
77969;DHT22;67161;0.000;0.000;2023-03-05T00:33:11;14.20;47.40
77969;DHT22;67161;0.000;0.000;2023-03-05T00:35:41;14.10;47.50
77969;DHT22;67161;0.000;0.000;2023-03-05T00:38:07;14.20;47.50
77969;DHT22;67161;0.000;0.000;2023-03-05T00:40:37;14.20;47.50
77969;DHT22;67161;0.000;0.000;2023-03-05T00:43:03;14.20;47.60
77969;DHT22;67161;0.000;0.000;2023-03-05T00:45:29;14.10;47.50
77969;DHT22;67161;0.000;0.000;2023-03-05T00:47:55;14.10;47.50
77969;DHT22;67161;0.000;0.000;2023-03-05T00:50:21;14.10;47.50
77969;DHT22;67161;0.000;0.000;2023-03-05T00:52:46;14.10;47.50
77969;DHT22;67161;0.000;0.000;2023-03-05T00:55:12;14.10;47.50
77969;DHT22;67161;0.000;0.000;2023-03-05T00:57:37;14.10;47.50
77969;DHT22;67161;0.000;0.000;2023-03-05T01:00:05;14.10;47.50
77969;DHT22;67161;0.000;0.000;2023-03-05T01:02:31;14.10;48.50
77969;DHT22;67161;0.000;0.000;2023-03-05T01:04:56;14.10;47.50
77969;DHT22;67161;0.000;0.000;2023-03-05T01:07:22;14.10;47.50
77969;DHT22;67161;0.000;0.000;2023-03-05T01:09:47;14.00;47.40
77969;DHT22;67161;0.000;0.000;2023-03-05T01:12:13;14.10;47.60
77969;DHT22;67161;0.000;0.000;2023-03-05T01:14:39;14.10;47.60
77969;DHT22;67161;0.000;0.000;2023-03-05T01:17:04;14.10;47.50
77969;DHT22;67161;0.000;0.000;2023-03-05T01:19:30;14.00;47.50
77969;DHT22;67161;0.000;0.000;2023-03-05T01:21:55;14.00;47.50
77969;DHT22;67161;0.000;0.000;2023-03-05T01:24:21;14.00;47.50
77969;DHT22;67161;0.000;0.000;2023-03-05T01:26:47;14.00;48.40
77969;DHT22;67161;0.000;0.000;2023-03-05T01:29:14;14.00;47.50
77969;DHT22;67161;0.000;0.000;2023-03-05T01:31:40;14.00;47.60
77969;DHT22;67161;0.000;0.000;2023-03-05T01:34:05;14.00;47.50
77969;DHT22;67161;0.000;0.000;2023-03-05T01:36:31;14.00;47.50
77969;DHT22;67161;0.000;0.000;2023-03-05T01:38:57;14.00;47.60
77969;DHT22;67161;0.000;0.000;2023-03-05T01:41:23;14.00;47.60
77969;DHT22;67161;0.000;0.000;2023-03-05T01:43:49;14.00;47.50
77969;DHT22;67161;0.000;0.000;2023-03-05T01:46:34;14.00;47.50
77969;DHT22;67161;0.000;0.000;2023-03-05T01:51:56;14.00;47.60
77969;DHT22;67161;0.000;0.000;2023-03-05T01:54:28;14.00;47.60
77969;DHT22;67161;0.000;0.000;2023-03-05T01:56:58;13.90;47.50
77969;DHT22;67161;0.000;0.000;2023-03-05T01:59:26;13.90;47.50
77969;DHT22;67161;0.000;0.000;2023-03-05T02:01:55;13.90;47.50
77969;DHT22;67161;0.000;0.000;2023-03-05T02:04:25;13.90;47.50
77969;DHT22;67161;0.000;0.000;2023-03-05T02:06:53;13.90;47.50
77969;DHT22;67161;0.000;0.000;2023-03-05T02:09:19;13.90;47.50
77969;DHT22;67161;0.000;0.000;2023-03-05T02:11:48;13.90;47.60
77969;DHT22;67161;0.000;0.000;2023-03-05T02:14:13;13.90;47.60
77969;DHT22;67161;0.000;0.000;2023-03-05T02:16:40;13.90;47.50
77969;DHT22;67161;0.000;0.000;2023-03-05T02:19:09;13.90;47.60
77969;DHT22;67161;0.000;0.000;2023-03-05T02:21:39;13.90;47.50
77969;DHT22;67161;0.000;0.000;2023-03-05T02:24:05;13.90;47.60
77969;DHT22;67161;0.000;0.000;2023-03-05T02:26:31;13.90;47.60
77969;DHT22;67161;0.000;0.000;2023-03-05T02:29:00;13.90;47.60
77969;DHT22;67161;0.000;0.000;2023-03-05T02:31:26;13.90;48.60
77969;DHT22;67161;0.000;0.000;2023-03-05T02:33:53;13.90;47.70
77969;DHT22;67161;0.000;0.000;2023-03-05T02:36:21;13.80;47.80
77969;DHT22;67161;0.000;0.000;2023-03-05T02:38:47;13.80;47.80
77969;DHT22;67161;0.000;0.000;2023-03-05T02:41:13;13.80;47.90
77969;DHT22;67161;0.000;0.000;2023-03-05T02:43:39;13.80;47.90
77969;DHT22;67161;0.000;0.000;2023-03-05T02:46:04;13.80;47.90
77969;DHT22;67161;0.000;0.000;2023-03-05T02:48:30;13.80;47.80
77969;DHT22;67161;0.000;0.000;2023-03-05T02:50:57;13.80;47.90
77969;DHT22;67161;0.000;0.000;2023-03-05T02:53:22;13.80;47.90
77969;DHT22;67161;0.000;0.000;2023-03-05T02:55:48;13.80;47.90
77969;DHT22;67161;0.000;0.000;2023-03-05T02:58:15;13.80;47.90
77969;DHT22;67161;0.000;0.000;2023-03-05T03:00:41;13.80;48.00
77969;DHT22;67161;0.000;0.000;2023-03-05T03:03:07;13.80;47.90
77969;DHT22;67161;0.000;0.000;2023-03-05T03:05:35;13.70;47.90
77969;DHT22;67161;0.000;0.000;2023-03-05T03:08:00;13.70;47.90
77969;DHT22;67161;0.000;0.000;2023-03-05T03:10:26;13.70;47.90
77969;DHT22;67161;0.000;0.000;2023-03-05T03:12:52;13.70;48.00
77969;DHT22;67161;0.000;0.000;2023-03-05T03:15:17;13.70;48.10
77969;DHT22;67161;0.000;0.000;2023-03-05T03:17:44;13.70;48.10
77969;DHT22;67161;0.000;0.000;2023-03-05T03:20:12;13.70;48.00
77969;DHT22;67161;0.000;0.000;2023-03-05T03:22:39;13.70;48.00
77969;DHT22;67161;0.000;0.000;2023-03-05T03:25:05;13.70;47.90
77969;DHT22;67161;0.000;0.000;2023-03-05T03:27:31;13.70;47.90
77969;DHT22;67161;0.000;0.000;2023-03-05T03:29:56;13.70;47.90
77969;DHT22;67161;0.000;0.000;2023-03-05T03:32:27;13.70;47.90
77969;DHT22;67161;0.000;0.000;2023-03-05T03:34:53;13.70;47.90
77969;DHT22;67161;0.000;0.000;2023-03-05T03:37:18;13.70;47.90
77969;DHT22;67161;0.000;0.000;2023-03-05T03:39:44;13.70;47.90
77969;DHT22;67161;0.000;0.000;2023-03-05T03:42:09;13.70;47.90
77969;DHT22;67161;0.000;0.000;2023-03-05T03:44:35;13.70;47.90
77969;DHT22;67161;0.000;0.000;2023-03-05T03:47:00;13.70;48.00
77969;DHT22;67161;0.000;0.000;2023-03-05T03:49:26;13.70;48.00
77969;DHT22;67161;0.000;0.000;2023-03-05T03:51:53;13.70;48.00
77969;DHT22;67161;0.000;0.000;2023-03-05T03:54:19;13.70;48.00
77969;DHT22;67161;0.000;0.000;2023-03-05T03:56:45;13.60;47.90
77969;DHT22;67161;0.000;0.000;2023-03-05T03:59:11;13.60;47.90
77969;DHT22;67161;0.000;0.000;2023-03-05T04:01:37;13.60;47.90
77969;DHT22;67161;0.000;0.000;2023-03-05T04:04:04;13.60;48.00
77969;DHT22;67161;0.000;0.000;2023-03-05T04:06:30;13.60;47.90
77969;DHT22;67161;0.000;0.000;2023-03-05T04:08:55;13.60;48.00
77969;DHT22;67161;0.000;0.000;2023-03-05T04:11:21;13.60;48.00
77969;DHT22;67161;0.000;0.000;2023-03-05T04:13:47;13.60;48.00
77969;DHT22;67161;0.000;0.000;2023-03-05T04:16:14;13.60;48.00
77969;DHT22;67161;0.000;0.000;2023-03-05T04:18:40;13.60;48.00
77969;DHT22;67161;0.000;0.000;2023-03-05T04:21:06;13.60;48.00
77969;DHT22;67161;0.000;0.000;2023-03-05T04:23:32;13.60;48.10
77969;DHT22;67161;0.000;0.000;2023-03-05T04:25:58;13.60;48.10
77969;DHT22;67161;0.000;0.000;2023-03-05T04:28:24;13.60;48.00
77969;DHT22;67161;0.000;0.000;2023-03-05T04:30:49;13.60;48.00
77969;DHT22;67161;0.000;0.000;2023-03-05T04:33:15;13.60;48.10
77969;DHT22;67161;0.000;0.000;2023-03-05T04:35:41;13.60;48.10
77969;DHT22;67161;0.000;0.000;2023-03-05T04:38:07;13.60;48.10
77969;DHT22;67161;0.000;0.000;2023-03-05T04:40:33;13.60;48.10
77969;DHT22;67161;0.000;0.000;2023-03-05T04:42:59;13.50;48.10
77969;DHT22;67161;0.000;0.000;2023-03-05T04:45:24;13.50;48.10
77969;DHT22;67161;0.000;0.000;2023-03-05T04:47:50;13.50;48.20
77969;DHT22;67161;0.000;0.000;2023-03-05T04:50:16;13.50;48.20
77969;DHT22;67161;0.000;0.000;2023-03-05T04:52:43;13.50;48.30
77969;DHT22;67161;0.000;0.000;2023-03-05T04:55:10;13.50;48.30
77969;DHT22;67161;0.000;0.000;2023-03-05T04:57:37;13.50;48.30
77969;DHT22;67161;0.000;0.000;2023-03-05T05:02:30;13.40;48.40
77969;DHT22;67161;0.000;0.000;2023-03-05T05:04:55;13.50;48.30
77969;DHT22;67161;0.000;0.000;2023-03-05T05:07:21;13.50;48.40
77969;DHT22;67161;0.000;0.000;2023-03-05T05:09:46;13.40;48.30
77969;DHT22;67161;0.000;0.000;2023-03-05T05:12:12;13.50;48.30
77969;DHT22;67161;0.000;0.000;2023-03-05T05:14:38;13.40;48.30
77969;DHT22;67161;0.000;0.000;2023-03-05T05:17:03;13.40;48.30
77969;DHT22;67161;0.000;0.000;2023-03-05T05:19:33;13.40;48.40
77969;DHT22;67161;0.000;0.000;2023-03-05T05:21:59;13.40;48.30
77969;DHT22;67161;0.000;0.000;2023-03-05T05:24:25;13.40;48.30
77969;DHT22;67161;0.000;0.000;2023-03-05T05:26:53;13.40;48.30
77969;DHT22;67161;0.000;0.000;2023-03-05T05:29:19;13.40;48.40
77969;DHT22;67161;0.000;0.000;2023-03-05T05:31:45;13.40;48.30
77969;DHT22;67161;0.000;0.000;2023-03-05T05:34:10;13.40;48.30
77969;DHT22;67161;0.000;0.000;2023-03-05T05:36:36;13.40;48.40
77969;DHT22;67161;0.000;0.000;2023-03-05T05:39:02;13.40;48.40
77969;DHT22;67161;0.000;0.000;2023-03-05T05:41:28;13.40;48.40
77969;DHT22;67161;0.000;0.000;2023-03-05T05:43:54;13.40;48.40
77969;DHT22;67161;0.000;0.000;2023-03-05T05:46:20;13.40;48.40
77969;DHT22;67161;0.000;0.000;2023-03-05T05:48:47;13.40;48.40
77969;DHT22;67161;0.000;0.000;2023-03-05T05:51:18;13.40;48.40
77969;DHT22;67161;0.000;0.000;2023-03-05T05:53:45;13.40;48.40
77969;DHT22;67161;0.000;0.000;2023-03-05T05:56:11;13.40;48.40
77969;DHT22;67161;0.000;0.000;2023-03-05T05:58:38;13.40;48.40
77969;DHT22;67161;0.000;0.000;2023-03-05T06:01:23;13.40;48.40
77969;DHT22;67161;0.000;0.000;2023-03-05T06:03:48;13.40;48.40
77969;DHT22;67161;0.000;0.000;2023-03-05T06:06:17;13.30;48.30
77969;DHT22;67161;0.000;0.000;2023-03-05T06:08:43;13.40;48.30
77969;DHT22;67161;0.000;0.000;2023-03-05T06:11:09;13.40;48.40
77969;DHT22;67161;0.000;0.000;2023-03-05T06:13:35;13.40;48.30
77969;DHT22;67161;0.000;0.000;2023-03-05T06:16:03;13.40;48.40
77969;DHT22;67161;0.000;0.000;2023-03-05T06:18:29;13.40;48.30
77969;DHT22;67161;0.000;0.000;2023-03-05T06:21:00;13.40;48.20
77969;DHT22;67161;0.000;0.000;2023-03-05T06:23:26;13.50;48.20
77969;DHT22;67161;0.000;0.000;2023-03-05T06:25:52;13.50;48.00
77969;DHT22;67161;0.000;0.000;2023-03-05T06:28:18;13.50;48.00
77969;DHT22;67161;0.000;0.000;2023-03-05T06:30:44;13.60;47.90
77969;DHT22;67161;0.000;0.000;2023-03-05T06:33:10;13.60;47.80
77969;DHT22;67161;0.000;0.000;2023-03-05T06:35:39;13.70;47.80
77969;DHT22;67161;0.000;0.000;2023-03-05T06:38:05;13.70;47.70
77969;DHT22;67161;0.000;0.000;2023-03-05T06:40:31;13.80;47.60
77969;DHT22;67161;0.000;0.000;2023-03-05T06:42:57;13.90;47.50
77969;DHT22;67161;0.000;0.000;2023-03-05T06:45:22;14.00;47.40
77969;DHT22;67161;0.000;0.000;2023-03-05T06:47:48;14.00;47.30
77969;DHT22;67161;0.000;0.000;2023-03-05T06:50:14;14.10;47.30
77969;DHT22;67161;0.000;0.000;2023-03-05T06:52:39;14.10;47.10
77969;DHT22;67161;0.000;0.000;2023-03-05T06:55:06;14.20;47.10
77969;DHT22;67161;0.000;0.000;2023-03-05T06:57:32;14.20;47.00
77969;DHT22;67161;0.000;0.000;2023-03-05T06:59:58;14.30;47.00
77969;DHT22;67161;0.000;0.000;2023-03-05T07:02:23;14.30;46.90
77969;DHT22;67161;0.000;0.000;2023-03-05T07:04:49;14.40;46.80
77969;DHT22;67161;0.000;0.000;2023-03-05T07:07:15;14.50;46.80
77969;DHT22;67161;0.000;0.000;2023-03-05T07:09:40;14.50;46.70
77969;DHT22;67161;0.000;0.000;2023-03-05T07:12:11;14.50;46.70
77969;DHT22;67161;0.000;0.000;2023-03-05T07:14:37;14.60;46.60
77969;DHT22;67161;0.000;0.000;2023-03-05T07:17:05;14.60;46.50
77969;DHT22;67161;0.000;0.000;2023-03-05T07:19:30;14.60;46.40
77969;DHT22;67161;0.000;0.000;2023-03-05T07:21:56;14.70;46.40
77969;DHT22;67161;0.000;0.000;2023-03-05T07:24:22;14.70;46.30
77969;DHT22;67161;0.000;0.000;2023-03-05T07:26:51;14.80;46.30
77969;DHT22;67161;0.000;0.000;2023-03-05T07:29:17;14.80;46.20
77969;DHT22;67161;0.000;0.000;2023-03-05T07:31:42;14.90;46.20
77969;DHT22;67161;0.000;0.000;2023-03-05T07:34:09;14.90;46.10
77969;DHT22;67161;0.000;0.000;2023-03-05T07:36:34;14.90;46.00
77969;DHT22;67161;0.000;0.000;2023-03-05T07:39:03;15.00;46.00
77969;DHT22;67161;0.000;0.000;2023-03-05T07:41:31;15.00;45.90
77969;DHT22;67161;0.000;0.000;2023-03-05T07:43:57;15.10;45.80
77969;DHT22;67161;0.000;0.000;2023-03-05T07:46:26;15.10;45.80
77969;DHT22;67161;0.000;0.000;2023-03-05T07:48:52;15.10;45.90
77969;DHT22;67161;0.000;0.000;2023-03-05T07:51:19;15.20;45.70
77969;DHT22;67161;0.000;0.000;2023-03-05T07:53:47;15.20;45.70
77969;DHT22;67161;0.000;0.000;2023-03-05T07:56:29;15.30;45.60
77969;DHT22;67161;0.000;0.000;2023-03-05T07:59:00;15.30;45.60
77969;DHT22;67161;0.000;0.000;2023-03-05T08:01:30;15.30;45.50
77969;DHT22;67161;0.000;0.000;2023-03-05T08:03:56;15.40;45.50
77969;DHT22;67161;0.000;0.000;2023-03-05T08:06:21;15.40;45.40
77969;DHT22;67161;0.000;0.000;2023-03-05T08:08:47;15.40;45.40
77969;DHT22;67161;0.000;0.000;2023-03-05T08:11:14;15.50;45.30
77969;DHT22;67161;0.000;0.000;2023-03-05T08:13:41;15.50;45.30
77969;DHT22;67161;0.000;0.000;2023-03-05T08:16:18;15.50;45.20
77969;DHT22;67161;0.000;0.000;2023-03-05T08:18:45;15.60;45.20
77969;DHT22;67161;0.000;0.000;2023-03-05T08:21:40;15.60;45.20
77969;DHT22;67161;0.000;0.000;2023-03-05T08:24:07;15.60;45.10
77969;DHT22;67161;0.000;0.000;2023-03-05T08:26:34;15.70;45.10
77969;DHT22;67161;0.000;0.000;2023-03-05T08:29:02;15.70;45.00
77969;DHT22;67161;0.000;0.000;2023-03-05T08:31:27;15.80;45.00
77969;DHT22;67161;0.000;0.000;2023-03-05T08:33:55;15.80;44.90
77969;DHT22;67161;0.000;0.000;2023-03-05T08:36:21;15.90;44.90
77969;DHT22;67161;0.000;0.000;2023-03-05T08:38:47;15.90;44.80
77969;DHT22;67161;0.000;0.000;2023-03-05T08:41:14;16.00;44.80
77969;DHT22;67161;0.000;0.000;2023-03-05T08:43:41;16.00;44.70
77969;DHT22;67161;0.000;0.000;2023-03-05T08:46:07;16.10;44.60
77969;DHT22;67161;0.000;0.000;2023-03-05T08:48:32;16.20;44.70
77969;DHT22;67161;0.000;0.000;2023-03-05T08:51:06;16.20;44.50
77969;DHT22;67161;0.000;0.000;2023-03-05T08:53:32;16.20;44.50
77969;DHT22;67161;0.000;0.000;2023-03-05T08:55:58;16.30;44.50
77969;DHT22;67161;0.000;0.000;2023-03-05T08:58:24;16.30;44.50
77969;DHT22;67161;0.000;0.000;2023-03-05T09:00:50;16.30;44.30
77969;DHT22;67161;0.000;0.000;2023-03-05T09:03:16;16.40;44.30
77969;DHT22;67161;0.000;0.000;2023-03-05T09:05:42;16.40;44.30
77969;DHT22;67161;0.000;0.000;2023-03-05T09:08:07;16.40;44.20
77969;DHT22;67161;0.000;0.000;2023-03-05T09:10:33;16.50;44.20
77969;DHT22;67161;0.000;0.000;2023-03-05T09:12:59;16.50;44.20
77969;DHT22;67161;0.000;0.000;2023-03-05T09:15:24;16.50;44.20
77969;DHT22;67161;0.000;0.000;2023-03-05T09:17:50;16.50;44.20
77969;DHT22;67161;0.000;0.000;2023-03-05T09:20:16;16.50;44.10
77969;DHT22;67161;0.000;0.000;2023-03-05T09:22:42;16.50;44.10
77969;DHT22;67161;0.000;0.000;2023-03-05T09:25:09;16.50;44.10
77969;DHT22;67161;0.000;0.000;2023-03-05T09:27:35;16.60;44.00
77969;DHT22;67161;0.000;0.000;2023-03-05T09:30:02;16.50;43.90
77969;DHT22;67161;0.000;0.000;2023-03-05T09:32:29;16.60;44.00
77969;DHT22;67161;0.000;0.000;2023-03-05T09:34:54;16.70;44.00
77969;DHT22;67161;0.000;0.000;2023-03-05T09:37:20;16.70;43.90
77969;DHT22;67161;0.000;0.000;2023-03-05T09:39:45;16.70;43.90
77969;DHT22;67161;0.000;0.000;2023-03-05T09:50:48;17.00;43.50
77969;DHT22;67161;0.000;0.000;2023-03-05T09:55:57;17.20;43.40
77969;DHT22;67161;0.000;0.000;2023-03-05T10:01:35;17.30;43.30
77969;DHT22;67161;0.000;0.000;2023-03-05T10:04:11;17.30;43.10
77969;DHT22;67161;0.000;0.000;2023-03-05T10:06:59;17.40;43.20
77969;DHT22;67161;0.000;0.000;2023-03-05T10:09:44;17.40;43.10
77969;DHT22;67161;0.000;0.000;2023-03-05T10:12:25;17.40;43.10
77969;DHT22;67161;0.000;0.000;2023-03-05T10:14:52;17.40;43.10
77969;DHT22;67161;0.000;0.000;2023-03-05T10:27:58;17.50;43.00
77969;DHT22;67161;0.000;0.000;2023-03-05T10:30:54;17.50;42.90
77969;DHT22;67161;0.000;0.000;2023-03-05T10:36:08;17.50;42.80
77969;DHT22;67161;0.000;0.000;2023-03-05T10:46:37;17.60;42.80
77969;DHT22;67161;0.000;0.000;2023-03-05T10:49:19;17.60;42.70
77969;DHT22;67161;0.000;0.000;2023-03-05T10:51:53;17.70;43.00
77969;DHT22;67161;0.000;0.000;2023-03-05T10:54:29;17.70;42.60
77969;DHT22;67161;0.000;0.000;2023-03-05T10:57:25;17.70;42.60
77969;DHT22;67161;0.000;0.000;2023-03-05T11:03:00;17.70;42.40
77969;DHT22;67161;0.000;0.000;2023-03-05T11:05:45;17.70;42.40
77969;DHT22;67161;0.000;0.000;2023-03-05T11:13:30;17.90;42.20
77969;DHT22;67161;0.000;0.000;2023-03-05T11:16:03;17.90;43.20
77969;DHT22;67161;0.000;0.000;2023-03-05T11:18:29;17.90;42.10
77969;DHT22;67161;0.000;0.000;2023-03-05T11:21:31;18.00;42.10
77969;DHT22;67161;0.000;0.000;2023-03-05T11:24:16;18.00;41.90
77969;DHT22;67161;0.000;0.000;2023-03-05T11:26:51;18.00;42.00
77969;DHT22;67161;0.000;0.000;2023-03-05T11:29:31;18.10;41.90
77969;DHT22;67161;0.000;0.000;2023-03-05T11:32:35;18.10;41.80
77969;DHT22;67161;0.000;0.000;2023-03-05T11:35:02;18.10;41.80
77969;DHT22;67161;0.000;0.000;2023-03-05T11:37:59;18.10;41.80
77969;DHT22;67161;0.000;0.000;2023-03-05T11:40:27;18.20;41.70
77969;DHT22;67161;0.000;0.000;2023-03-05T11:42:57;18.20;41.70
77969;DHT22;67161;0.000;0.000;2023-03-05T11:45:24;18.20;42.70
77969;DHT22;67161;0.000;0.000;2023-03-05T11:47:53;18.20;41.60
77969;DHT22;67161;0.000;0.000;2023-03-05T11:50:31;18.20;41.60
77969;DHT22;67161;0.000;0.000;2023-03-05T11:53:08;18.20;41.40
77969;DHT22;67161;0.000;0.000;2023-03-05T11:55:40;18.20;41.40
77969;DHT22;67161;0.000;0.000;2023-03-05T11:58:25;18.20;41.40
77969;DHT22;67161;0.000;0.000;2023-03-05T12:00:52;18.30;41.40
77969;DHT22;67161;0.000;0.000;2023-03-05T12:03:24;18.30;41.40
77969;DHT22;67161;0.000;0.000;2023-03-05T12:08:45;18.30;41.20
77969;DHT22;67161;0.000;0.000;2023-03-05T12:11:25;18.30;41.20
77969;DHT22;67161;0.000;0.000;2023-03-05T12:14:14;18.30;41.30
77969;DHT22;67161;0.000;0.000;2023-03-05T12:16:52;18.30;41.40
77969;DHT22;67161;0.000;0.000;2023-03-05T12:19:40;18.40;41.50
77969;DHT22;67161;0.000;0.000;2023-03-05T12:22:36;18.40;41.70
77969;DHT22;67161;0.000;0.000;2023-03-05T12:25:32;18.50;42.20
77969;DHT22;67161;0.000;0.000;2023-03-05T12:27:58;18.50;42.30
77969;DHT22;67161;0.000;0.000;2023-03-05T12:33:00;18.60;42.40
77969;DHT22;67161;0.000;0.000;2023-03-05T12:35:31;18.50;42.30
77969;DHT22;67161;0.000;0.000;2023-03-05T12:38:43;18.50;42.30
77969;DHT22;67161;0.000;0.000;2023-03-05T12:40:50;18.50;42.30
77969;DHT22;67161;0.000;0.000;2023-03-05T12:43:30;18.50;42.30
77969;DHT22;67161;0.000;0.000;2023-03-05T12:46:22;18.60;42.30
77969;DHT22;67161;0.000;0.000;2023-03-05T12:48:48;18.60;42.30
77969;DHT22;67161;0.000;0.000;2023-03-05T12:51:27;18.60;42.30
77969;DHT22;67161;0.000;0.000;2023-03-05T12:53:54;18.60;42.20
77969;DHT22;67161;0.000;0.000;2023-03-05T12:56:21;18.60;42.20
77969;DHT22;67161;0.000;0.000;2023-03-05T12:58:52;18.60;42.10
77969;DHT22;67161;0.000;0.000;2023-03-05T13:01:44;18.60;42.10
77969;DHT22;67161;0.000;0.000;2023-03-05T13:04:18;18.60;41.90
77969;DHT22;67161;0.000;0.000;2023-03-05T13:07:02;18.70;43.00
77969;DHT22;67161;0.000;0.000;2023-03-05T13:09:30;18.70;42.00
77969;DHT22;67161;0.000;0.000;2023-03-05T13:12:02;18.70;42.00
77969;DHT22;67161;0.000;0.000;2023-03-05T13:17:00;18.70;41.90
77969;DHT22;67161;0.000;0.000;2023-03-05T13:19:26;18.80;41.90
77969;DHT22;67161;0.000;0.000;2023-03-05T13:22:03;18.80;41.80
77969;DHT22;67161;0.000;0.000;2023-03-05T13:24:34;18.80;41.70
77969;DHT22;67161;0.000;0.000;2023-03-05T13:27:00;18.80;41.70
77969;DHT22;67161;0.000;0.000;2023-03-05T13:29:26;18.80;41.70
77969;DHT22;67161;0.000;0.000;2023-03-05T13:32:01;18.80;41.70
77969;DHT22;67161;0.000;0.000;2023-03-05T13:34:33;18.80;41.50
77969;DHT22;67161;0.000;0.000;2023-03-05T13:37:01;18.80;41.50
77969;DHT22;67161;0.000;0.000;2023-03-05T13:39:39;18.90;41.50
77969;DHT22;67161;0.000;0.000;2023-03-05T13:42:21;18.90;41.50
77969;DHT22;67161;0.000;0.000;2023-03-05T13:44:58;18.80;41.50
77969;DHT22;67161;0.000;0.000;2023-03-05T13:47:26;18.80;41.40
77969;DHT22;67161;0.000;0.000;2023-03-05T13:49:57;18.80;41.50
77969;DHT22;67161;0.000;0.000;2023-03-05T13:52:30;18.80;41.50
77969;DHT22;67161;0.000;0.000;2023-03-05T13:54:56;18.80;41.50
77969;DHT22;67161;0.000;0.000;2023-03-05T13:57:34;18.80;41.40
77969;DHT22;67161;0.000;0.000;2023-03-05T14:03:21;18.80;41.30
77969;DHT22;67161;0.000;0.000;2023-03-05T14:05:48;18.80;41.30
77969;DHT22;67161;0.000;0.000;2023-03-05T14:08:20;18.80;41.30
77969;DHT22;67161;0.000;0.000;2023-03-05T14:10:48;18.80;41.30
77969;DHT22;67161;0.000;0.000;2023-03-05T14:13:19;18.80;41.20
77969;DHT22;67161;0.000;0.000;2023-03-05T14:16:24;18.80;41.20
77969;DHT22;67161;0.000;0.000;2023-03-05T14:18:56;18.80;41.10
77969;DHT22;67161;0.000;0.000;2023-03-05T14:21:22;18.80;41.10
77969;DHT22;67161;0.000;0.000;2023-03-05T14:23:51;18.80;41.20
77969;DHT22;67161;0.000;0.000;2023-03-05T14:26:34;18.80;41.10
77969;DHT22;67161;0.000;0.000;2023-03-05T14:29:12;18.80;41.00
77969;DHT22;67161;0.000;0.000;2023-03-05T14:31:56;18.80;40.90
77969;DHT22;67161;0.000;0.000;2023-03-05T14:34:26;18.70;40.50
77969;DHT22;67161;0.000;0.000;2023-03-05T14:36:55;18.70;40.40
77969;DHT22;67161;0.000;0.000;2023-03-05T14:39:27;18.70;40.10
77969;DHT22;67161;0.000;0.000;2023-03-05T14:41:53;18.70;39.90
77969;DHT22;67161;0.000;0.000;2023-03-05T14:44:18;18.70;39.80
77969;DHT22;67161;0.000;0.000;2023-03-05T14:46:48;18.70;39.60
77969;DHT22;67161;0.000;0.000;2023-03-05T14:49:15;18.70;39.30
77969;DHT22;67161;0.000;0.000;2023-03-05T14:51:43;18.70;40.20
77969;DHT22;67161;0.000;0.000;2023-03-05T14:54:21;18.60;38.90
77969;DHT22;67161;0.000;0.000;2023-03-05T14:56:48;18.60;38.40
77969;DHT22;67161;0.000;0.000;2023-03-05T14:59:18;18.60;38.40
77969;DHT22;67161;0.000;0.000;2023-03-05T15:01:46;18.50;38.10
77969;DHT22;67161;0.000;0.000;2023-03-05T15:04:11;18.60;38.10
77969;DHT22;67161;0.000;0.000;2023-03-05T15:06:40;18.50;38.00
77969;DHT22;67161;0.000;0.000;2023-03-05T15:09:10;18.60;37.90
77969;DHT22;67161;0.000;0.000;2023-03-05T15:11:36;18.50;37.70
77969;DHT22;67161;0.000;0.000;2023-03-05T15:14:02;18.50;37.70
77969;DHT22;67161;0.000;0.000;2023-03-05T15:16:29;18.50;37.60
77969;DHT22;67161;0.000;0.000;2023-03-05T15:18:54;18.50;37.50
77969;DHT22;67161;0.000;0.000;2023-03-05T15:21:20;18.50;38.30
77969;DHT22;67161;0.000;0.000;2023-03-05T15:23:46;18.50;37.40
77969;DHT22;67161;0.000;0.000;2023-03-05T15:26:13;18.50;37.30
77969;DHT22;67161;0.000;0.000;2023-03-05T15:28:40;18.50;37.20
77969;DHT22;67161;0.000;0.000;2023-03-05T15:31:06;18.50;37.30
77969;DHT22;67161;0.000;0.000;2023-03-05T15:33:32;18.50;37.10
77969;DHT22;67161;0.000;0.000;2023-03-05T15:35:58;18.50;37.10
77969;DHT22;67161;0.000;0.000;2023-03-05T15:38:24;18.50;37.20
77969;DHT22;67161;0.000;0.000;2023-03-05T15:40:50;18.40;37.00
77969;DHT22;67161;0.000;0.000;2023-03-05T15:43:17;18.40;37.10
77969;DHT22;67161;0.000;0.000;2023-03-05T15:45:43;18.40;37.10
77969;DHT22;67161;0.000;0.000;2023-03-05T15:48:08;18.40;37.10
77969;DHT22;67161;0.000;0.000;2023-03-05T15:50:34;18.40;37.10
77969;DHT22;67161;0.000;0.000;2023-03-05T15:52:59;18.40;37.10
77969;DHT22;67161;0.000;0.000;2023-03-05T15:55:25;18.50;37.10
77969;DHT22;67161;0.000;0.000;2023-03-05T15:57:52;18.50;37.10
77969;DHT22;67161;0.000;0.000;2023-03-05T16:00:21;18.50;37.10
77969;DHT22;67161;0.000;0.000;2023-03-05T16:02:48;18.60;37.30
77969;DHT22;67161;0.000;0.000;2023-03-05T16:05:13;18.60;37.30
77969;DHT22;67161;0.000;0.000;2023-03-05T16:07:42;18.60;37.40
77969;DHT22;67161;0.000;0.000;2023-03-05T16:10:10;18.60;37.40
77969;DHT22;67161;0.000;0.000;2023-03-05T16:12:38;18.50;37.40
77969;DHT22;67161;0.000;0.000;2023-03-05T16:15:13;18.50;37.50
77969;DHT22;67161;0.000;0.000;2023-03-05T16:17:41;18.60;37.60
77969;DHT22;67161;0.000;0.000;2023-03-05T16:20:09;18.60;37.70
77969;DHT22;67161;0.000;0.000;2023-03-05T16:22:35;18.60;37.80
77969;DHT22;67161;0.000;0.000;2023-03-05T16:25:00;18.60;37.80
77969;DHT22;67161;0.000;0.000;2023-03-05T16:27:26;18.50;37.80
77969;DHT22;67161;0.000;0.000;2023-03-05T16:29:52;18.60;38.00
77969;DHT22;67161;0.000;0.000;2023-03-05T16:32:18;18.50;38.00
77969;DHT22;67161;0.000;0.000;2023-03-05T16:34:43;18.50;38.00
77969;DHT22;67161;0.000;0.000;2023-03-05T16:37:09;18.60;38.20
77969;DHT22;67161;0.000;0.000;2023-03-05T16:39:35;18.60;38.20
77969;DHT22;67161;0.000;0.000;2023-03-05T16:42:01;18.60;38.30
77969;DHT22;67161;0.000;0.000;2023-03-05T16:44:27;18.50;38.20
77969;DHT22;67161;0.000;0.000;2023-03-05T16:46:52;18.60;38.30
77969;DHT22;67161;0.000;0.000;2023-03-05T16:49:21;18.50;38.30
77969;DHT22;67161;0.000;0.000;2023-03-05T16:51:47;18.60;38.40
77969;DHT22;67161;0.000;0.000;2023-03-05T16:54:13;18.60;38.40
77969;DHT22;67161;0.000;0.000;2023-03-05T16:56:38;18.60;38.50